LFMU/BZR METAR and TAF weather

Enter ICAO airport designator
Station Type Date Time Source
LFMU METAR 2020/07/05 03:30 UTC NOAA

LFMU 050330Z AUTO 27005KT CAVOK 20/12 Q1020


Station Type Date Time Source
LFMU Decoded METAR 2020/07/05 03:30 UTC NOAA

Beziers / Vias, France (LFMU) 43-19N 003-21E
Jul 04, 2020 - 11:30 PM EDT / 2020.07.05 0330 UTC
Wind: from the W (270 degrees) at 6 MPH (5 KT):0
Visibility: greater than 7 mile(s):0
Temperature: 68 F (20 C)
Dew Point: 53 F (12 C)
Relative Humidity: 59%
Pressure (altimeter): 30.12 in. Hg (1020 hPa)
ob: LFMU 050330Z AUTO 27005KT CAVOK 20/12 Q1020
cycle: 3

Station Type Date Time Source
LFMU TAF 2020/07/04 16:59 UTC NOAA

TAF LFMU 041655Z 0416/0515 CNL

Example: see airport list